ENNA METAR and TAF weather

Enter ICAO airport designator
Station Type Date Time Source
ENNA METAR 2018/01/19 22:50 UTC NOAA

ENNA 192250Z AUTO 19019KT 9999 NCD M14/M18 Q1008 RMK WIND 1800FT 23026KT


Station Type Date Time Source
ENNA Decoded METAR 2018/01/19 22:50 UTC NOAA

Banak, Norway (ENNA) 70-04N 024-59E 8M
Jan 19, 2018 - 05:50 PM EST / 2018.01.19 2250 UTC
Wind: from the S (190 degrees) at 22 MPH (19 KT):0
Visibility: greater than 7 mile(s):0
Temperature: 6 F (-14 C)
Windchill: -14 F (-26 C):2
Dew Point: 0 F (-18 C)
Relative Humidity: 71%
Pressure (altimeter): 29.77 in. Hg (1008 hPa)
ob: ENNA 192250Z AUTO 19019KT 9999 NCD M14/M18 Q1008 RMK WIND 1800FT 23026KT
cycle: 23

Station Type Date Time Source
ENNA TAF 2018/01/19 18:59 UTC NOAA

TAF ENNA 191700Z 1918/2018 19008KT CAVOK
BECMG 1918/1921 18020KT
TEMPO 2000/2012 18030G45KT


Example: see airport list